Time;durP1;ratioP1;P1;durP2;ratioP2;P2;SDS_P1;SDS_P2;PMS_P1;PMS_P2;Temp;Humidity;BMP_temperature;BMP_pressure;BME280_temperature;BME280_humidity;BME280_pressure;Samples;Min_cycle;Max_cycle;Signal;HPM_P1;HPM_P2
2022/04/16 00:01:30;;;;;;;2.70;2.50;;;7.50;99.90;;;;;;5017846;28;20203;-64
2022/04/16 00:03:56;;;;;;;3.07;2.87;;;7.40;99.90;;;;;;5017900;28;20279;-65
2022/04/16 00:06:23;;;;;;;3.40;3.10;;;7.50;99.90;;;;;;5016414;28;20298;-66
2022/04/16 00:08:50;;;;;;;2.80;2.60;;;7.40;99.90;;;;;;5017249;28;20287;-65
2022/04/16 00:11:17;;;;;;;3.20;2.90;;;7.50;99.90;;;;;;5017978;28;20206;-65
2022/04/16 00:13:46;;;;;;;4.37;3.00;;;7.40;99.90;;;;;;5017274;28;20214;-65
2022/04/16 00:16:14;;;;;;;4.27;3.07;;;7.40;99.90;;;;;;5017660;28;20219;-64
2022/04/16 00:18:41;;;;;;;3.97;3.40;;;7.40;99.90;;;;;;5017243;28;20294;-65
2022/04/16 00:21:07;;;;;;;3.60;3.13;;;7.40;99.90;;;;;;5017433;28;20286;-65
2022/04/16 00:23:34;;;;;;;3.23;2.93;;;7.40;99.90;;;;;;5017072;28;20732;-65
2022/04/16 00:26:02;;;;;;;4.00;2.87;;;7.40;99.90;;;;;;5016489;28;20237;-64
2022/04/16 00:28:29;;;;;;;2.87;2.53;;;7.40;99.90;;;;;;5016987;28;20570;-64
2022/04/16 00:30:58;;;;;;;3.50;3.20;;;7.40;99.90;;;;;;5017758;28;20609;-65
2022/04/16 00:33:26;;;;;;;4.00;3.43;;;7.50;99.90;;;;;;5016905;28;20290;-65
2022/04/16 00:35:53;;;;;;;2.97;2.70;;;7.50;99.90;;;;;;5017638;28;20715;-66
2022/04/16 00:38:21;;;;;;;3.27;2.97;;;7.50;99.90;;;;;;5016957;28;20211;-65
2022/04/16 00:40:48;;;;;;;3.30;2.80;;;7.40;99.90;;;;;;5016998;28;20231;-65
2022/04/16 00:43:22;;;;;;;2.63;2.43;;;7.30;99.90;;;;;;5017781;28;20206;-66
2022/04/16 00:45:50;;;;;;;3.10;2.67;;;7.30;99.90;;;;;;5017381;28;20204;-64
2022/04/16 00:48:18;;;;;;;3.10;2.80;;;7.20;99.90;;;;;;5016852;28;20239;-64
2022/04/16 00:50:45;;;;;;;3.50;3.20;;;7.30;99.90;;;;;;5016200;28;20230;-65
2022/04/16 00:53:12;;;;;;;4.00;3.60;;;7.30;99.90;;;;;;5017421;28;20560;-65
2022/04/16 00:55:39;;;;;;;5.00;4.50;;;7.20;99.90;;;;;;5016579;28;20679;-65
2022/04/16 00:58:07;;;;;;;4.90;4.40;;;7.20;99.90;;;;;;5017042;28;20685;-65
2022/04/16 01:00:33;;;;;;;3.73;3.33;;;7.20;99.90;;;;;;5017028;28;20313;-68
2022/04/16 01:03:00;;;;;;;3.90;3.57;;;7.20;99.90;;;;;;5016278;28;20572;-68
2022/04/16 01:05:29;;;;;;;3.83;3.00;;;7.10;99.90;;;;;;5016499;28;20227;-68
2022/04/16 01:07:58;;;;;;;5.63;5.07;;;7.10;99.90;;;;;;5016663;28;20290;-68
2022/04/16 01:10:27;;;;;;;5.67;4.70;;;7.00;99.90;;;;;;5017362;28;20227;-67
2022/04/16 01:12:54;;;;;;;4.10;3.70;;;7.00;99.90;;;;;;5016654;28;20236;-68
2022/04/16 01:15:21;;;;;;;3.70;3.20;;;6.90;99.90;;;;;;5017450;28;20302;-68
2022/04/16 01:17:48;;;;;;;3.30;3.00;;;6.90;99.90;;;;;;5016917;28;20204;-68
2022/04/16 01:20:16;;;;;;;3.63;3.00;;;6.90;99.90;;;;;;5016825;28;20219;-67
2022/04/16 01:22:45;;;;;;;5.17;3.60;;;6.90;99.90;;;;;;5016490;28;20227;-67
2022/04/16 01:25:12;;;;;;;4.07;3.67;;;6.90;99.90;;;;;;5016855;28;20206;-69
2022/04/16 01:27:43;;;;;;;5.13;3.30;;;6.90;99.90;;;;;;5015829;28;20207;-68
2022/04/16 01:30:11;;;;;;;5.67;3.67;;;6.90;99.90;;;;;;5016662;28;20307;-68
2022/04/16 01:32:38;;;;;;;7.13;3.83;;;6.80;99.90;;;;;;5016993;28;20290;-67
2022/04/16 01:35:06;;;;;;;3.67;3.23;;;6.80;99.90;;;;;;5016996;28;20619;-68
2022/04/16 01:37:35;;;;;;;3.93;2.97;;;6.90;99.90;;;;;;5017166;28;20660;-69
2022/04/16 01:40:05;;;;;;;4.83;3.40;;;6.90;99.90;;;;;;5016769;28;20246;-67
2022/04/16 01:42:32;;;;;;;3.73;3.10;;;6.90;99.90;;;;;;5015945;28;20637;-68
2022/04/16 01:45:00;;;;;;;3.47;3.10;;;6.90;99.90;;;;;;5017104;28;20642;-68
2022/04/16 01:47:27;;;;;;;3.60;3.07;;;6.90;99.90;;;;;;5016241;28;20210;-67
2022/04/16 01:49:54;;;;;;;3.37;2.87;;;6.90;99.90;;;;;;5016370;28;20250;-69
2022/04/16 01:52:21;;;;;;;4.30;3.40;;;6.90;99.90;;;;;;5016856;28;20673;-67
2022/04/16 01:54:48;;;;;;;3.27;2.97;;;7.00;99.90;;;;;;5016993;28;20211;-67
2022/04/16 01:57:18;;;;;;;4.37;3.00;;;6.90;99.90;;;;;;5016567;28;20203;-68
2022/04/16 01:59:45;;;;;;;3.27;2.97;;;6.80;99.90;;;;;;5016909;28;20286;-67
2022/04/16 02:02:12;;;;;;;3.63;3.00;;;6.80;99.90;;;;;;5016605;28;20724;-68
2022/04/16 02:04:39;;;;;;;3.53;2.80;;;6.80;99.90;;;;;;5016297;28;20199;-68
2022/04/16 02:07:06;;;;;;;4.03;2.87;;;6.70;99.90;;;;;;5015687;28;20207;-67
2022/04/16 02:09:33;;;;;;;3.50;2.97;;;6.70;99.90;;;;;;5015662;28;20688;-67
2022/04/16 02:12:00;;;;;;;3.47;3.10;;;6.70;99.90;;;;;;5015694;28;20227;-68
2022/04/16 02:14:28;;;;;;;3.37;2.57;;;6.70;99.90;;;;;;5015542;28;20207;-68
2022/04/16 02:16:57;;;;;;;3.67;3.27;;;6.70;99.90;;;;;;5015723;28;20209;-67
2022/04/16 02:19:24;;;;;;;5.53;3.50;;;6.70;99.90;;;;;;5014639;28;20258;-67
2022/04/16 02:21:51;;;;;;;4.83;3.03;;;6.70;99.90;;;;;;5015626;28;20234;-67
2022/04/16 02:24:18;;;;;;;3.30;2.70;;;6.70;99.90;;;;;;5015373;28;20290;-67
2022/04/16 02:26:45;;;;;;;3.67;3.10;;;6.70;99.90;;;;;;5015335;28;20294;-68
2022/04/16 02:29:14;;;;;;;3.80;3.13;;;6.70;99.90;;;;;;5015435;28;20218;-67
2022/04/16 02:31:44;;;;;;;3.43;3.13;;;6.70;99.90;;;;;;5015880;28;20203;-67
2022/04/16 02:34:11;;;;;;;3.73;2.97;;;6.70;99.90;;;;;;5015829;28;20200;-68
2022/04/16 02:36:40;;;;;;;4.93;2.80;;;6.60;99.90;;;;;;5015585;28;20266;-68
2022/04/16 02:39:08;;;;;;;4.37;3.00;;;6.60;99.90;;;;;;5015221;28;20371;-67
2022/04/16 02:41:35;;;;;;;3.13;2.83;;;6.60;99.90;;;;;;5015248;28;20354;-67
2022/04/16 02:44:01;;;;;;;3.87;2.53;;;6.60;99.90;;;;;;5015081;28;20286;-68
2022/04/16 02:49:14;;;;;;;3.03;2.63;;;6.60;99.90;;;;;;5015673;28;20179;-67
2022/04/16 02:51:41;;;;;;;2.53;2.33;;;6.50;99.90;;;;;;5015389;28;20303;-66
2022/04/16 02:54:07;;;;;;;2.67;2.33;;;6.60;99.90;;;;;;5015378;28;20203;-67
2022/04/16 02:56:34;;;;;;;3.20;2.90;;;6.60;99.90;;;;;;5015337;28;20553;-67
2022/04/16 02:59:01;;;;;;;2.97;2.57;;;6.50;99.90;;;;;;5014886;28;20230;-66
2022/04/16 03:01:28;;;;;;;4.00;2.80;;;6.50;99.90;;;;;;5014544;28;20199;-68
2022/04/16 03:03:55;;;;;;;2.70;2.50;;;6.50;99.90;;;;;;5014635;28;20207;-68
2022/04/16 03:06:23;;;;;;;2.90;2.20;;;6.50;99.90;;;;;;5014727;28;20680;-68
2022/04/16 03:08:50;;;;;;;2.70;2.50;;;6.50;99.90;;;;;;5015440;28;20231;-67
2022/04/16 03:11:17;;;;;;;3.53;2.50;;;6.50;99.90;;;;;;5015335;28;20224;-68
2022/04/16 03:13:43;;;;;;;2.90;2.60;;;6.50;99.90;;;;;;5015446;28;20207;-68
2022/04/16 03:18:55;;;;;;;3.27;2.97;;;6.40;99.90;;;;;;5016051;28;20182;-68
2022/04/16 03:21:23;;;;;;;2.87;2.57;;;6.40;99.90;;;;;;5019382;28;20685;-67
2022/04/16 03:23:50;;;;;;;2.37;2.17;;;6.40;99.90;;;;;;5019252;28;20246;-68
2022/04/16 03:26:17;;;;;;;2.80;2.37;;;6.30;99.90;;;;;;5018122;28;20212;-68
2022/04/16 03:28:44;;;;;;;3.23;2.60;;;6.30;99.90;;;;;;5018884;28;20298;-67
2022/04/16 03:31:11;;;;;;;2.73;2.47;;;6.30;99.90;;;;;;5018320;28;20322;-67
2022/04/16 03:33:38;;;;;;;2.97;2.60;;;6.30;99.90;;;;;;5017752;28;20294;-67
2022/04/16 03:36:07;;;;;;;2.77;2.47;;;6.30;99.90;;;;;;5017408;28;20230;-67
2022/04/16 03:38:36;;;;;;;2.03;1.83;;;6.30;99.90;;;;;;5017583;28;20203;-67
2022/04/16 03:41:02;;;;;;;2.17;1.97;;;6.20;99.90;;;;;;5017306;28;20267;-67
2022/04/16 03:43:29;;;;;;;2.67;2.00;;;6.20;99.90;;;;;;5016184;28;20234;-69
2022/04/16 03:45:58;;;;;;;2.30;1.77;;;6.20;99.90;;;;;;5017515;28;20210;-67
2022/04/16 03:48:25;;;;;;;2.43;1.90;;;6.20;99.90;;;;;;5017869;28;20644;-68
2022/04/16 03:50:52;;;;;;;2.43;2.00;;;6.10;99.90;;;;;;5017536;28;20302;-68
2022/04/16 03:53:20;;;;;;;2.00;1.90;;;6.10;99.90;;;;;;5018001;28;20668;-67
2022/04/16 04:01:16;;;;;;;2.50;1.70;;;6.10;99.90;;;;;;5017605;28;20182;-67
2022/04/16 04:03:46;;;;;;;2.63;2.10;;;6.10;99.90;;;;;;5018152;28;20322;-69
2022/04/16 04:06:13;;;;;;;1.77;1.50;;;6.10;99.90;;;;;;5017784;28;20301;-67
2022/04/16 04:08:40;;;;;;;1.63;1.53;;;6.10;99.90;;;;;;5018009;28;20656;-67
2022/04/16 04:11:08;;;;;;;1.53;1.43;;;6.10;99.90;;;;;;5017872;28;20237;-67
2022/04/16 04:13:35;;;;;;;1.80;1.70;;;6.10;99.90;;;;;;5018254;28;20230;-67
2022/04/16 04:16:02;;;;;;;1.50;1.40;;;6.10;99.90;;;;;;5018567;28;20289;-68
2022/04/16 04:18:28;;;;;;;1.50;1.40;;;6.00;99.90;;;;;;5018189;28;20661;-68
2022/04/16 04:20:56;;;;;;;1.53;1.43;;;6.00;99.90;;;;;;5018709;28;20291;-67
2022/04/16 04:23:23;;;;;;;2.07;1.73;;;5.90;99.90;;;;;;5017914;28;20214;-67
2022/04/16 04:25:50;;;;;;;1.57;1.47;;;5.90;99.90;;;;;;5017903;28;20684;-67
2022/04/16 04:28:19;;;;;;;1.63;1.53;;;5.90;99.90;;;;;;5016731;28;20199;-67
2022/04/16 04:30:46;;;;;;;2.80;1.50;;;5.90;99.90;;;;;;5016302;28;20234;-67
2022/04/16 04:33:13;;;;;;;2.10;1.47;;;6.00;99.90;;;;;;5017660;28;20217;-68
2022/04/16 04:35:39;;;;;;;1.40;1.30;;;6.10;99.90;;;;;;5017470;28;20294;-69
2022/04/16 04:38:06;;;;;;;2.50;1.40;;;6.20;99.90;;;;;;5017722;28;20653;-68
2022/04/16 04:40:33;;;;;;;1.20;1.10;;;6.20;99.90;;;;;;5016672;28;20235;-67
2022/04/16 04:43:00;;;;;;;1.87;1.50;;;6.20;99.90;;;;;;5017028;28;20203;-67
2022/04/16 04:45:28;;;;;;;1.77;1.67;;;6.30;99.90;;;;;;5017060;28;20290;-67
2022/04/16 04:47:56;;;;;;;2.90;1.97;;;6.30;99.90;;;;;;5017090;28;20239;-67
2022/04/16 04:50:22;;;;;;;2.60;2.20;;;6.40;99.90;;;;;;5016947;28;20313;-68
2022/04/16 04:52:49;;;;;;;1.90;1.70;;;6.40;99.90;;;;;;5017241;28;20293;-68
2022/04/16 04:55:16;;;;;;;2.20;1.80;;;6.50;99.90;;;;;;5017135;28;20630;-68
2022/04/16 04:57:43;;;;;;;2.60;1.70;;;6.50;99.90;;;;;;5016550;28;20199;-67
2022/04/16 05:00:12;;;;;;;2.10;1.90;;;6.50;99.90;;;;;;5017065;28;20206;-67
2022/04/16 05:02:42;;;;;;;1.83;1.73;;;6.50;99.90;;;;;;5017100;28;20687;-67
2022/04/16 05:05:09;;;;;;;1.73;1.63;;;6.50;99.90;;;;;;5015965;28;20571;-68
2022/04/16 05:07:36;;;;;;;1.30;1.20;;;6.30;99.90;;;;;;5016572;28;20286;-67
2022/04/16 05:10:03;;;;;;;3.20;1.83;;;6.30;99.90;;;;;;5016680;28;20203;-68
2022/04/16 05:12:30;;;;;;;1.73;1.60;;;6.30;99.90;;;;;;5016834;28;20203;-68
2022/04/16 05:14:57;;;;;;;2.37;1.50;;;6.30;99.90;;;;;;5017168;28;20661;-68
2022/04/16 05:17:24;;;;;;;1.50;1.40;;;6.20;99.90;;;;;;5017066;28;20210;-67
2022/04/16 05:19:52;;;;;;;1.30;1.20;;;6.20;99.90;;;;;;5017423;28;20199;-68
2022/04/16 05:22:19;;;;;;;1.30;0.90;;;6.10;99.90;;;;;;5017105;28;20591;-68
2022/04/16 05:24:46;;;;;;;1.60;1.50;;;6.10;99.90;;;;;;5016456;28;20317;-67
2022/04/16 05:27:12;;;;;;;2.30;1.10;;;6.20;99.90;;;;;;5016083;28;20542;-67
2022/04/16 05:29:56;;;;;;;1.40;1.30;;;6.10;99.90;;;;;;5016037;28;20203;-67
2022/04/16 05:32:24;;;;;;;1.23;1.13;;;6.10;99.90;;;;;;5015930;28;20194;-68
2022/04/16 05:34:55;;;;;;;1.43;1.17;;;6.20;99.90;;;;;;5015723;28;20570;-67
2022/04/16 05:37:22;;;;;;;2.17;1.33;;;6.30;99.90;;;;;;5016157;28;20203;-67
2022/04/16 05:39:49;;;;;;;1.40;1.30;;;6.20;99.90;;;;;;5017041;28;20273;-67
2022/04/16 05:42:16;;;;;;;0.93;0.93;;;6.20;99.90;;;;;;5016245;28;20203;-68
2022/04/16 05:44:42;;;;;;;1.30;1.20;;;6.20;99.90;;;;;;5016285;28;20208;-68
2022/04/16 05:47:09;;;;;;;1.40;1.30;;;6.20;99.90;;;;;;5015438;28;20227;-68
2022/04/16 05:49:36;;;;;;;1.20;1.10;;;6.20;99.90;;;;;;5016257;28;20207;-67
2022/04/16 05:52:06;;;;;;;1.50;1.17;;;6.20;99.90;;;;;;5016256;28;20267;-68
2022/04/16 05:54:32;;;;;;;1.60;1.50;;;6.20;99.90;;;;;;5016527;28;20199;-67
2022/04/16 05:57:00;;;;;;;1.53;1.37;;;6.20;99.90;;;;;;5016182;28;20294;-69
2022/04/16 05:59:26;;;;;;;1.30;1.20;;;6.30;99.90;;;;;;5015534;28;20239;-67
2022/04/16 06:01:54;;;;;;;1.23;1.13;;;6.30;99.90;;;;;;5016064;28;20715;-68
2022/04/16 06:04:20;;;;;;;0.90;0.90;;;6.40;99.90;;;;;;5015164;28;20200;-67
2022/04/16 06:06:47;;;;;;;2.07;1.20;;;6.40;99.90;;;;;;5016146;28;20668;-68
2022/04/16 06:09:15;;;;;;;2.00;1.43;;;6.50;99.90;;;;;;5016105;28;20213;-67
2022/04/16 06:11:42;;;;;;;2.70;1.30;;;6.70;99.90;;;;;;5016240;28;20266;-68
2022/04/16 06:14:10;;;;;;;2.40;1.13;;;6.70;99.90;;;;;;5016013;28;20203;-68
2022/04/16 06:16:37;;;;;;;1.20;1.10;;;6.60;99.90;;;;;;5016025;28;20294;-67
2022/04/16 06:19:03;;;;;;;1.33;1.23;;;6.60;99.90;;;;;;5015793;28;20203;-67
2022/04/16 06:21:30;;;;;;;1.13;1.03;;;6.70;99.90;;;;;;5016344;28;20306;-68
2022/04/16 06:23:57;;;;;;;1.87;1.40;;;6.70;99.90;;;;;;5015140;28;20668;-67
2022/04/16 06:26:26;;;;;;;1.63;1.43;;;6.70;99.90;;;;;;5015967;28;20601;-69
2022/04/16 06:28:53;;;;;;;1.67;1.57;;;6.80;99.90;;;;;;5016795;28;20262;-67
2022/04/16 06:31:20;;;;;;;1.40;1.30;;;6.80;99.90;;;;;;5017314;28;20231;-68
2022/04/16 06:33:47;;;;;;;1.33;1.23;;;6.80;99.90;;;;;;5016409;28;20199;-69
2022/04/16 06:36:14;;;;;;;1.90;1.40;;;6.90;99.90;;;;;;5016243;28;20550;-67
2022/04/16 06:38:42;;;;;;;1.30;1.20;;;6.90;99.90;;;;;;5015478;28;20639;-68
2022/04/16 06:41:08;;;;;;;1.70;1.53;;;7.00;99.90;;;;;;5015835;28;20235;-68
2022/04/16 06:43:37;;;;;;;1.37;1.27;;;7.00;99.90;;;;;;5016885;28;20658;-68
2022/04/16 06:46:04;;;;;;;1.50;1.30;;;7.00;99.90;;;;;;5017003;28;20208;-69
2022/04/16 06:48:30;;;;;;;1.20;1.10;;;7.00;99.90;;;;;;5017922;28;20306;-69
2022/04/16 06:50:57;;;;;;;1.63;1.40;;;6.90;99.90;;;;;;5016220;28;20250;-68
2022/04/16 06:53:26;;;;;;;1.93;1.37;;;6.90;99.90;;;;;;5016531;28;20203;-68
2022/04/16 06:55:54;;;;;;;1.40;1.10;;;6.90;99.90;;;;;;5026216;28;20208;-68
2022/04/16 06:58:21;;;;;;;1.20;1.10;;;6.90;99.90;;;;;;5030978;28;20208;-68
2022/04/16 07:00:49;;;;;;;1.50;1.40;;;6.90;99.90;;;;;;5019094;28;20210;-68
2022/04/16 07:03:16;;;;;;;2.60;1.30;;;6.90;99.90;;;;;;5019733;28;20718;-68
2022/04/16 07:05:43;;;;;;;1.23;1.13;;;7.00;99.90;;;;;;5019155;28;20199;-69
2022/04/16 07:08:10;;;;;;;1.60;1.17;;;7.00;99.90;;;;;;5019065;28;20620;-69
2022/04/16 07:10:37;;;;;;;1.20;1.10;;;7.10;99.90;;;;;;5019728;28;20211;-68
2022/04/16 07:13:03;;;;;;;1.50;1.33;;;7.30;99.90;;;;;;5019391;28;20270;-69
2022/04/16 07:15:31;;;;;;;2.00;1.40;;;7.50;99.90;;;;;;5019035;28;20199;-68
2022/04/16 07:18:00;;;;;;;2.03;1.60;;;7.60;99.90;;;;;;5018379;28;20199;-67
2022/04/16 07:20:27;;;;;;;1.23;1.10;;;7.80;99.90;;;;;;5019382;28;20203;-68
2022/04/16 07:22:53;;;;;;;1.60;1.50;;;7.90;99.90;;;;;;5020167;28;20199;-68
2022/04/16 07:25:21;;;;;;;1.60;1.50;;;7.90;99.90;;;;;;5020615;28;20680;-68
2022/04/16 07:27:48;;;;;;;1.10;1.00;;;8.00;99.90;;;;;;5020523;28;20664;-68
2022/04/16 07:30:15;;;;;;;1.40;1.30;;;8.00;99.90;;;;;;5020463;28;20238;-68
2022/04/16 07:32:42;;;;;;;1.30;1.20;;;8.10;99.80;;;;;;5019787;28;20714;-68
2022/04/16 07:35:10;;;;;;;1.23;1.20;;;8.10;99.60;;;;;;5019924;28;20263;-68
2022/04/16 07:37:37;;;;;;;1.37;1.27;;;8.20;99.20;;;;;;5019451;28;20235;-68
2022/04/16 07:40:05;;;;;;;1.40;1.30;;;8.20;98.80;;;;;;5019463;28;20239;-68
2022/04/16 07:42:32;;;;;;;1.10;1.00;;;8.30;98.20;;;;;;5018422;28;20279;-67
2022/04/16 07:44:59;;;;;;;1.40;1.30;;;8.20;97.10;;;;;;5019609;28;20230;-68
2022/04/16 07:47:26;;;;;;;1.23;1.10;;;8.30;96.80;;;;;;5019504;28;20199;-68
2022/04/16 07:49:53;;;;;;;1.57;1.40;;;8.30;96.20;;;;;;5019386;28;20195;-68
2022/04/16 07:52:22;;;;;;;1.03;1.00;;;8.40;96.40;;;;;;5019454;28;20287;-68
2022/04/16 07:54:48;;;;;;;3.37;1.90;;;8.50;97.30;;;;;;5018704;28;20606;-69
2022/04/16 07:57:15;;;;;;;2.50;1.87;;;8.80;97.20;;;;;;5018208;28;20199;-68
2022/04/16 07:59:42;;;;;;;1.57;1.43;;;8.90;96.20;;;;;;5017730;28;20207;-68
2022/04/16 08:02:09;;;;;;;1.83;1.63;;;8.90;95.40;;;;;;5018770;28;20250;-69
2022/04/16 08:04:36;;;;;;;2.13;1.60;;;8.90;95.50;;;;;;5018085;28;20584;-68
2022/04/16 08:07:03;;;;;;;2.83;1.40;;;9.00;94.90;;;;;;5017829;28;20214;-68
2022/04/16 08:09:31;;;;;;;1.57;1.37;;;9.10;94.70;;;;;;5018827;28;20272;-69
2022/04/16 08:11:59;;;;;;;1.17;1.07;;;9.20;93.60;;;;;;5018197;28;20281;-67
2022/04/16 08:14:26;;;;;;;2.03;1.30;;;9.30;93.30;;;;;;5017585;28;20257;-68
2022/04/16 08:16:53;;;;;;;3.27;1.60;;;9.40;93.00;;;;;;5017639;28;20538;-69
2022/04/16 08:19:20;;;;;;;2.50;1.90;;;9.50;92.70;;;;;;5018419;28;20210;-68
2022/04/16 08:21:47;;;;;;;1.90;1.70;;;9.60;92.00;;;;;;5018211;28;20220;-69
2022/04/16 08:24:22;;;;;;;1.70;1.60;;;9.60;91.30;;;;;;5018522;28;20241;-68
2022/04/16 08:26:50;;;;;;;2.73;1.33;;;9.50;90.70;;;;;;5018104;28;20632;-68
2022/04/16 08:29:17;;;;;;;1.80;1.30;;;9.40;90.20;;;;;;5017885;28;20306;-69
2022/04/16 08:31:44;;;;;;;2.67;1.60;;;9.40;89.70;;;;;;5017638;28;20230;-68
2022/04/16 08:34:11;;;;;;;2.07;1.20;;;9.40;90.00;;;;;;5018478;28;20207;-68
2022/04/16 08:36:38;;;;;;;1.10;0.97;;;9.40;89.20;;;;;;5018290;28;20211;-68
2022/04/16 08:39:06;;;;;;;5.53;1.47;;;9.60;89.00;;;;;;5017608;28;20207;-69
2022/04/16 08:41:33;;;;;;;1.60;1.50;;;9.80;88.30;;;;;;5016681;28;20276;-69
2022/04/16 08:44:02;;;;;;;1.53;1.43;;;10.00;87.10;;;;;;5018087;28;20230;-68
2022/04/16 08:46:32;;;;;;;4.03;3.03;;;10.10;84.70;;;;;;5018024;28;20290;-68
2022/04/16 08:49:00;;;;;;;1.33;1.23;;;10.20;85.00;;;;;;5017474;28;20266;-69
2022/04/16 08:51:27;;;;;;;1.53;1.20;;;10.20;83.80;;;;;;5018435;28;20234;-69
2022/04/16 08:53:54;;;;;;;1.90;1.53;;;10.20;81.70;;;;;;5017152;28;20322;-68
2022/04/16 08:56:21;;;;;;;1.30;1.20;;;10.30;81.50;;;;;;5017524;28;20282;-67
2022/04/16 08:58:48;;;;;;;1.20;1.10;;;10.50;80.90;;;;;;5017230;28;20262;-68
2022/04/16 09:01:16;;;;;;;1.33;1.00;;;10.60;79.20;;;;;;5020171;28;20322;-68
2022/04/16 09:03:43;;;;;;;2.50;1.20;;;10.70;77.40;;;;;;5017947;28;20211;-69
2022/04/16 09:06:10;;;;;;;1.77;1.30;;;10.90;76.70;;;;;;5017350;28;20202;-69
2022/04/16 09:08:37;;;;;;;1.30;1.20;;;11.20;76.00;;;;;;5017790;28;20233;-69
2022/04/16 09:11:09;;;;;;;1.20;1.10;;;11.50;76.00;;;;;;5017977;28;20239;-68
2022/04/16 09:13:36;;;;;;;1.93;1.30;;;11.70;73.10;;;;;;5017395;28;20877;-67
2022/04/16 09:16:06;;;;;;;2.47;2.07;;;11.90;72.00;;;;;;5016628;28;20203;-68
2022/04/16 09:18:45;;;;;;;1.40;1.30;;;12.10;70.90;;;;;;5017483;28;20661;-68
2022/04/16 09:21:13;;;;;;;1.13;1.03;;;12.20;69.60;;;;;;5017314;28;20223;-68
2022/04/16 09:23:47;;;;;;;2.37;1.60;;;12.10;68.10;;;;;;5017042;28;20234;-68
2022/04/16 09:26:14;;;;;;;1.43;1.33;;;12.00;69.00;;;;;;5016238;28;20203;-67
2022/04/16 09:28:45;;;;;;;1.80;1.60;;;12.00;69.30;;;;;;5015536;28;20215;-67
2022/04/16 09:31:12;;;;;;;3.10;1.13;;;12.10;68.40;;;;;;5016979;28;20195;-69
2022/04/16 09:33:41;;;;;;;5.03;1.00;;;12.20;67.80;;;;;;5016693;28;20217;-69
2022/04/16 09:36:08;;;;;;;1.07;1.00;;;12.20;67.30;;;;;;5016229;28;20211;-67
2022/04/16 09:38:37;;;;;;;2.63;1.37;;;12.10;66.60;;;;;;5015809;28;20294;-70
2022/04/16 09:41:08;;;;;;;0.90;0.90;;;12.20;66.10;;;;;;5016602;28;20239;-68
2022/04/16 09:43:35;;;;;;;2.47;1.07;;;12.10;64.70;;;;;;5016729;28;20283;-68
2022/04/16 09:46:11;;;;;;;1.97;0.90;;;12.10;63.10;;;;;;5015803;28;20636;-68
2022/04/16 09:48:40;;;;;;;1.50;1.00;;;12.20;63.60;;;;;;5016053;28;20202;-68
2022/04/16 09:51:07;;;;;;;2.63;1.20;;;12.30;62.60;;;;;;5016380;28;20346;-68
2022/04/16 09:53:37;;;;;;;0.93;0.93;;;12.50;62.90;;;;;;5016521;28;20261;-68
2022/04/16 09:56:09;;;;;;;4.90;0.90;;;12.80;61.90;;;;;;5016502;28;20207;-68
2022/04/16 09:58:39;;;;;;;0.90;0.90;;;13.20;59.40;;;;;;5016179;28;20283;-68
2022/04/16 10:01:09;;;;;;;1.50;1.37;;;13.30;58.70;;;;;;5015950;28;20196;-69
2022/04/16 10:03:36;;;;;;;0.80;0.80;;;13.50;58.10;;;;;;5017388;28;20595;-68
2022/04/16 10:06:05;;;;;;;1.00;1.00;;;13.60;57.30;;;;;;5015900;28;20199;-68
2022/04/16 10:08:34;;;;;;;2.67;1.07;;;13.80;57.10;;;;;;5016604;28;20204;-68
2022/04/16 10:11:03;;;;;;;1.40;1.30;;;13.80;56.50;;;;;;5016075;28;20229;-68
2022/04/16 10:13:38;;;;;;;1.33;1.10;;;13.70;56.00;;;;;;5014457;28;20206;-68
2022/04/16 10:16:13;;;;;;;0.90;0.90;;;13.70;55.90;;;;;;5015758;28;20191;-68
2022/04/16 10:18:40;;;;;;;1.27;1.00;;;13.60;55.90;;;;;;5016147;28;20640;-68
2022/04/16 10:21:16;;;;;;;1.30;0.90;;;13.50;55.80;;;;;;5016152;28;20656;-68
2022/04/16 10:23:43;;;;;;;1.20;1.10;;;13.30;55.60;;;;;;5015641;28;20194;-68
2022/04/16 10:26:11;;;;;;;2.00;1.00;;;13.00;56.00;;;;;;5015124;28;20606;-68
2022/04/16 10:28:40;;;;;;;1.30;1.20;;;12.80;55.90;;;;;;5016495;28;20205;-68
2022/04/16 10:31:19;;;;;;;0.90;0.80;;;12.60;56.70;;;;;;5019054;28;20203;-69
2022/04/16 10:34:01;;;;;;;1.37;1.27;;;12.60;57.00;;;;;;5018118;28;20211;-68
2022/04/16 10:36:32;;;;;;;1.93;1.17;;;12.90;57.00;;;;;;5019000;28;20286;-68
2022/04/16 10:38:59;;;;;;;3.70;1.07;;;13.20;56.70;;;;;;5018478;28;20217;-68
2022/04/16 10:41:27;;;;;;;0.80;0.80;;;13.50;55.90;;;;;;5019612;28;20238;-69
2022/04/16 10:43:57;;;;;;;1.10;1.00;;;13.60;55.80;;;;;;5020185;28;20203;-69
2022/04/16 10:46:25;;;;;;;2.00;1.37;;;13.90;54.60;;;;;;5020080;28;20257;-68
2022/04/16 10:48:55;;;;;;;1.00;1.00;;;14.10;53.70;;;;;;5019492;28;20199;-69
2022/04/16 10:51:23;;;;;;;1.20;0.93;;;14.20;54.00;;;;;;5019474;28;20286;-69
2022/04/16 10:53:51;;;;;;;1.30;0.97;;;14.30;53.10;;;;;;5019714;28;20238;-69
2022/04/16 10:56:20;;;;;;;0.80;0.80;;;14.30;52.70;;;;;;5018454;28;20295;-67
2022/04/16 10:58:48;;;;;;;1.50;0.90;;;14.40;52.60;;;;;;5018876;28;20203;-68
2022/04/16 11:01:26;;;;;;;1.00;0.90;;;14.60;51.70;;;;;;5019903;28;20234;-68
2022/04/16 11:03:54;;;;;;;1.10;1.00;;;14.80;51.40;;;;;;5019186;28;20195;-68
2022/04/16 11:06:21;;;;;;;1.40;0.90;;;15.00;50.60;;;;;;5019024;28;20235;-69
2022/04/16 11:08:48;;;;;;;1.77;1.00;;;15.40;50.20;;;;;;5019017;28;20656;-69
2022/04/16 11:11:16;;;;;;;1.70;1.47;;;15.70;49.60;;;;;;5018750;28;20298;-68
2022/04/16 11:13:44;;;;;;;1.17;1.00;;;15.70;48.70;;;;;;5018997;28;20286;-69
2022/04/16 11:16:11;;;;;;;1.17;0.90;;;15.60;48.40;;;;;;5019248;28;20207;-69
2022/04/16 11:18:41;;;;;;;0.87;0.80;;;15.60;48.70;;;;;;5018253;28;20270;-68
2022/04/16 11:21:09;;;;;;;1.20;0.80;;;15.50;48.50;;;;;;5017317;28;20230;-68
2022/04/16 11:23:41;;;;;;;3.63;1.10;;;15.60;47.60;;;;;;5019127;28;20214;-69
2022/04/16 11:34:26;;;;;;;0.90;0.80;;;15.60;46.70;;;;;;5017874;28;20214;-68
2022/04/16 11:36:54;;;;;;;1.70;0.60;;;15.70;46.80;;;;;;5018010;28;20203;-68
2022/04/16 11:39:22;;;;;;;1.30;0.77;;;15.70;45.90;;;;;;5018157;28;20234;-69
2022/04/16 11:41:53;;;;;;;1.20;1.00;;;15.60;45.60;;;;;;5019198;28;20238;-70
2022/04/16 11:44:34;;;;;;;2.23;0.90;;;15.50;45.90;;;;;;5019528;28;20192;-68
2022/04/16 11:47:02;;;;;;;0.80;0.70;;;15.30;46.50;;;;;;5018768;28;20211;-68
2022/04/16 11:49:30;;;;;;;0.80;0.70;;;15.20;45.90;;;;;;5018587;28;20195;-68
2022/04/16 11:51:58;;;;;;;3.07;1.10;;;15.10;46.90;;;;;;5018944;28;20215;-69
2022/04/16 11:54:29;;;;;;;0.80;0.70;;;15.10;46.50;;;;;;5018067;28;20207;-69
2022/04/16 11:56:56;;;;;;;0.93;0.93;;;15.30;47.00;;;;;;5018464;28;20646;-69
2022/04/16 11:59:24;;;;;;;0.90;0.90;;;15.30;46.50;;;;;;5018182;28;20300;-69
2022/04/16 12:02:06;;;;;;;1.00;0.73;;;15.30;46.00;;;;;;5018832;28;20638;-68
2022/04/16 12:04:37;;;;;;;0.60;0.60;;;15.00;45.70;;;;;;5019028;28;20629;-68
2022/04/16 12:07:10;;;;;;;1.10;1.00;;;14.90;45.70;;;;;;5018568;28;20207;-69
2022/04/16 12:09:37;;;;;;;1.47;1.10;;;14.70;45.60;;;;;;5018711;28;20191;-68
2022/04/16 12:12:05;;;;;;;0.97;0.97;;;14.50;45.80;;;;;;5018399;28;20585;-69
2022/04/16 12:14:32;;;;;;;4.40;0.80;;;14.30;46.00;;;;;;5019060;28;20199;-68
2022/04/16 12:17:01;;;;;;;0.90;0.90;;;14.20;45.90;;;;;;5018668;28;20199;-68
2022/04/16 12:19:32;;;;;;;1.33;0.70;;;14.10;45.80;;;;;;5017859;28;20204;-69
2022/04/16 12:21:59;;;;;;;2.00;0.83;;;13.90;45.60;;;;;;5018077;28;20258;-68
2022/04/16 12:24:28;;;;;;;1.10;0.80;;;13.80;45.80;;;;;;5017696;28;20761;-68
2022/04/16 12:26:55;;;;;;;0.63;0.63;;;13.60;46.20;;;;;;5017206;28;20211;-68
2022/04/16 12:29:27;;;;;;;0.70;0.70;;;13.60;47.20;;;;;;5017245;28;20203;-68
2022/04/16 12:31:59;;;;;;;0.97;0.93;;;13.80;47.50;;;;;;5018341;28;20649;-69
2022/04/16 12:34:27;;;;;;;1.70;1.60;;;14.00;47.70;;;;;;5017751;28;20711;-69
2022/04/16 12:36:54;;;;;;;1.93;1.20;;;14.30;46.70;;;;;;5017344;28;20320;-68
2022/04/16 12:39:23;;;;;;;0.80;0.80;;;14.50;46.40;;;;;;5017563;28;20203;-68
2022/04/16 12:41:51;;;;;;;0.90;0.90;;;14.80;45.90;;;;;;5017954;28;20531;-69
2022/04/16 12:44:18;;;;;;;0.70;0.70;;;15.00;45.40;;;;;;5017125;28;20211;-69
2022/04/16 12:46:45;;;;;;;2.33;0.73;;;15.10;44.90;;;;;;5017738;28;20660;-68
2022/04/16 12:49:17;;;;;;;1.00;0.83;;;15.20;45.00;;;;;;5017544;28;20215;-68
2022/04/16 12:51:48;;;;;;;0.80;0.80;;;15.40;44.70;;;;;;5016936;28;20188;-69
2022/04/16 12:54:15;;;;;;;0.73;0.73;;;15.60;44.10;;;;;;5016379;28;20212;-69
2022/04/16 12:56:42;;;;;;;1.37;1.20;;;15.70;43.80;;;;;;5017876;28;20209;-68
2022/04/16 12:59:09;;;;;;;1.53;1.10;;;15.50;43.50;;;;;;5017457;28;20306;-67
2022/04/16 13:01:36;;;;;;;1.40;1.30;;;15.40;43.90;;;;;;5016946;28;20204;-69
2022/04/16 13:04:04;;;;;;;2.40;1.13;;;15.00;43.60;;;;;;5017683;28;20199;-68
2022/04/16 13:06:31;;;;;;;1.30;0.90;;;14.70;44.20;;;;;;5016821;28;20215;-67
2022/04/16 13:09:02;;;;;;;2.67;0.90;;;14.30;44.80;;;;;;5016342;28;20203;-68
2022/04/16 13:11:29;;;;;;;0.80;0.80;;;14.30;45.40;;;;;;5016528;28;20561;-68
2022/04/16 13:13:56;;;;;;;2.97;1.17;;;14.40;45.20;;;;;;5016896;28;20242;-68
2022/04/16 13:16:23;;;;;;;1.33;0.93;;;14.30;44.60;;;;;;5017082;28;20230;-69